Time;durP1;ratioP1;P1;durP2;ratioP2;P2;SDS_P1;SDS_P2;PMS_P1;PMS_P2;Temp;Humidity;BMP_temperature;BMP_pressure;BME280_temperature;BME280_humidity;BME280_pressure;Samples;Min_cycle;Max_cycle;Signal;HPM_P1;HPM_P2
2022/04/21 00:00:43;;;;;;;;;10.50;8.25;;;;;11.33;63.88;-18791.25;5033136;28;10316;-69
2022/04/21 00:03:10;;;;;;;;;13.75;10.00;;;;;11.28;63.35;-18789.88;5032629;28;10358;-70
2022/04/21 00:05:37;;;;;;;;;15.75;13.75;;;;;11.22;63.57;-18788.06;5032143;28;11101;-68
2022/04/21 00:08:04;;;;;;;;;11.00;9.75;;;;;11.27;63.36;-18789.44;5028089;28;11238;-68
2022/04/21 00:10:31;;;;;;;;;10.50;10.00;;;;;11.17;63.44;-18786.41;5028550;28;10523;-67
2022/04/21 00:12:58;;;;;;;;;11.75;8.75;;;;;11.23;63.72;-18788.38;5029750;28;10519;-68
2022/04/21 00:15:25;;;;;;;;;10.00;9.50;;;;;11.27;63.76;-18789.44;5031796;28;10543;-68
2022/04/21 00:17:52;;;;;;;;;10.00;8.00;;;;;11.19;63.36;-18787.03;5026565;28;10589;-68
2022/04/21 00:20:18;;;;;;;;;9.50;8.00;;;;;11.08;64.32;-18783.84;5017217;28;10595;-68
2022/04/21 00:25:30;;;;;;;;;9.75;9.00;;;;;11.04;63.86;-18782.78;5030834;28;10581;-69
2022/04/21 00:27:56;;;;;;;;;10.75;5.75;;;;;11.09;64.11;-18784.16;5028452;28;10581;-68
2022/04/21 00:30:23;;;;;;;;;10.75;7.25;;;;;11.14;63.60;-18785.66;5032608;28;10491;-68
2022/04/21 00:32:50;;;;;;;;;8.75;8.75;;;;;11.15;64.16;-18785.81;5023349;28;10468;-69
2022/04/21 00:35:23;;;;;;;;;8.75;8.75;;;;;11.06;63.73;-18783.25;5012980;28;10445;-68
2022/04/21 00:37:55;;;;;;;;;13.50;10.00;;;;;11.12;63.19;-18784.91;5012815;28;10441;-68
2022/04/21 00:40:26;;;;;;;;;11.25;10.25;;;;;11.02;63.04;-18782.19;5031780;28;10462;-68
2022/04/21 00:42:54;;;;;;;;;7.25;7.00;;;;;11.02;63.05;-18782.19;5023347;28;11051;-69
2022/04/21 00:45:20;;;;;;;;;10.25;9.00;;;;;10.95;63.04;-18780.06;5025555;28;10469;-68
2022/04/21 00:47:48;;;;;;;;;13.50;12.00;;;;;10.88;63.58;-18777.97;5028969;28;10386;-67
2022/04/21 00:50:24;;;;;;;;;12.25;9.75;;;;;10.84;64.00;-18776.75;5027184;28;10510;-68
2022/04/21 00:52:53;;;;;;;;;11.00;7.00;;;;;10.93;62.83;-18779.47;5023411;28;10327;-69
2022/04/21 00:55:21;;;;;;;;;9.50;9.50;;;;;10.83;63.94;-18776.31;5012373;28;10455;-68
2022/04/21 00:57:50;;;;;;;;;8.00;8.00;;;;;10.86;63.75;-18777.38;5015164;28;10665;-67
2022/04/21 01:00:17;;;;;;;;;10.00;9.00;;;;;10.84;64.01;-18776.59;5026180;28;11221;-68
2022/04/21 01:02:49;;;;;;;;;13.50;9.75;;;;;10.70;64.43;-18772.69;5029956;28;10553;-68
2022/04/21 01:05:18;;;;;;;;;11.00;8.25;;;;;10.89;64.09;-18778.13;5032072;28;10564;-68
2022/04/21 01:07:45;;;;;;;;;7.50;6.25;;;;;10.86;64.28;-18777.38;5028208;28;10500;-69
2022/04/21 01:10:12;;;;;;;;;6.75;6.00;;;;;10.95;63.95;-18780.06;5031251;28;10485;-68
2022/04/21 01:12:42;;;;;;;;;9.75;7.75;;;;;10.91;64.33;-18778.88;5030231;28;10379;-69
2022/04/21 01:15:09;;;;;;;;;9.00;9.00;;;;;10.73;64.29;-18773.44;5031768;28;10446;-68
2022/04/21 01:17:37;;;;;;;;;10.00;9.50;;;;;10.82;64.25;-18776.00;5018073;28;10483;-68
2022/04/21 01:20:06;;;;;;;;;7.75;5.50;;;;;10.76;63.57;-18774.34;5023714;28;11031;-69
2022/04/21 01:22:32;;;;;;;;;10.25;10.25;;;;;10.62;64.09;-18770.13;5022012;28;10304;-68
2022/04/21 01:24:59;;;;;;;;;8.75;7.75;;;;;10.62;64.52;-18770.28;5027702;28;10467;-68
2022/04/21 01:27:31;;;;;;;;;6.00;4.50;;;;;10.70;63.81;-18772.53;5024941;28;10456;-68
2022/04/21 01:29:58;;;;;;;;;7.75;7.75;;;;;10.59;63.61;-18769.38;5031578;28;10470;-67
2022/04/21 01:32:24;;;;;;;;;12.50;11.25;;;;;10.55;63.91;-18768.16;5029447;28;10378;-68
2022/04/21 01:34:51;;;;;;;;;9.25;7.75;;;;;10.75;63.37;-18774.19;5028104;28;10707;-68
2022/04/21 01:42:48;;;;;;;;;8.50;7.25;;;;;10.58;63.86;-18768.91;5029225;28;10545;-69
2022/04/21 01:45:16;;;;;;;;;8.25;8.25;;;;;10.67;63.34;-18771.63;5024237;28;10456;-69
2022/04/21 01:47:42;;;;;;;;;10.00;7.75;;;;;10.42;64.27;-18764.25;5021068;28;10609;-69
2022/04/21 01:50:09;;;;;;;;;7.00;5.75;;;;;10.51;64.40;-18766.81;5031057;28;10582;-69
2022/04/21 01:52:37;;;;;;;;;7.00;6.50;;;;;10.64;64.34;-18770.88;5020563;28;10505;-68
2022/04/21 01:55:04;;;;;;;;;9.50;8.00;;;;;10.55;63.98;-18768.16;5031101;28;10519;-69
2022/04/21 01:57:31;;;;;;;;;9.50;7.00;;;;;10.60;64.89;-18769.66;5016620;28;10695;-68
2022/04/21 01:59:57;;;;;;;;;7.25;7.25;;;;;10.57;64.18;-18768.63;5028575;28;10678;-68
2022/04/21 02:02:24;;;;;;;;;8.00;8.00;;;;;10.49;65.34;-18766.34;5030647;28;10564;-67
2022/04/21 02:04:50;;;;;;;;;9.00;7.50;;;;;10.52;65.13;-18767.25;5030682;28;10933;-67
2022/04/21 02:07:17;;;;;;;;;6.75;6.75;;;;;10.41;65.08;-18764.09;5025403;28;10601;-69
2022/04/21 02:09:43;;;;;;;;;9.75;7.00;;;;;10.48;65.06;-18766.19;5027124;28;10579;-67
2022/04/21 02:12:11;;;;;;;;;10.00;9.50;;;;;10.55;65.34;-18768.00;5024930;28;10563;-68
2022/04/21 02:14:37;;;;;;;;;9.25;7.00;;;;;10.52;65.69;-18767.25;5030692;28;10735;-69
2022/04/21 02:17:06;;;;;;;;;9.00;9.00;;;;;10.43;66.37;-18764.69;5029563;28;10507;-69
2022/04/21 02:19:33;;;;;;;;;8.50;8.50;;;;;10.45;66.73;-18765.28;5030484;28;10512;-67
2022/04/21 02:22:00;;;;;;;;;5.75;4.25;;;;;10.28;67.72;-18760.00;5027519;28;11487;-69
2022/04/21 02:24:27;;;;;;;;;7.00;7.00;;;;;10.44;67.42;-18764.84;5028398;28;10467;-69
2022/04/21 02:26:54;;;;;;;;;9.50;8.00;;;;;10.38;67.58;-18763.19;5044968;28;10512;-69
2022/04/21 02:29:20;;;;;;;;;9.00;8.25;;;;;10.52;66.63;-18767.25;5026334;28;10603;-68
2022/04/21 02:31:47;;;;;;;;;6.25;6.25;;;;;10.56;66.51;-18768.31;5029638;28;10686;-68
2022/04/21 02:34:13;;;;;;;;;7.75;6.00;;;;;10.48;67.09;-18766.19;5023915;28;10514;-69
2022/04/21 02:36:40;;;;;;;;;8.25;7.00;;;;;10.35;67.47;-18762.13;5024719;28;10474;-69
2022/04/21 02:39:06;;;;;;;;;7.25;7.25;;;;;10.51;66.92;-18766.94;5022321;28;11229;-68
2022/04/21 02:41:33;;;;;;;;;9.50;9.50;;;;;10.23;66.35;-18758.50;5029731;28;11385;-68
2022/04/21 02:43:59;;;;;;;;;9.25;8.75;;;;;10.41;66.11;-18764.09;5029105;28;10656;-68
2022/04/21 02:46:29;;;;;;;;;8.25;8.25;;;;;10.23;65.77;-18758.50;5029813;28;10482;-69
2022/04/21 02:48:59;;;;;;;;;8.00;7.75;;;;;10.05;66.41;-18753.38;5025611;28;11421;-69
2022/04/21 02:51:27;;;;;;;;;8.00;8.00;;;;;10.17;65.71;-18756.84;5028719;28;10492;-68
2022/04/21 02:59:25;;;;;;;;;9.25;7.75;;;;;10.13;65.28;-18755.63;5030184;28;10492;-68
2022/04/21 03:01:51;;;;;;;;;10.75;9.00;;;;;10.08;65.95;-18754.28;5029558;28;10625;-68
2022/04/21 03:04:18;;;;;;;;;7.00;6.50;;;;;10.18;65.68;-18757.16;5023239;28;10598;-69
2022/04/21 03:06:44;;;;;;;;;11.50;7.00;;;;;10.24;65.03;-18758.97;5026167;28;10592;-70
2022/04/21 03:09:11;;;;;;;;;8.50;8.00;;;;;10.15;65.58;-18756.38;5028027;28;10541;-69
2022/04/21 03:11:37;;;;;;;;;6.00;6.00;;;;;10.18;65.17;-18757.16;5028215;28;10729;-69
2022/04/21 03:14:04;;;;;;;;;7.50;7.00;;;;;10.26;65.39;-18759.41;5010456;28;10600;-68
2022/04/21 03:16:30;;;;;;;;;13.00;6.00;;;;;10.21;64.92;-18757.91;5012323;28;10477;-69
2022/04/21 03:18:57;;;;;;;;;4.00;4.00;;;;;10.27;64.97;-18759.72;5019296;28;10639;-68
2022/04/21 03:24:21;;;;;;;;;7.50;7.50;;;;;10.22;65.44;-18758.19;5020176;28;10424;-68
2022/04/21 03:26:50;;;;;;;;;9.00;8.75;;;;;10.17;65.22;-18756.84;5031461;28;10448;-69
2022/04/21 03:29:16;;;;;;;;;4.50;4.50;;;;;10.06;65.46;-18753.66;5017242;28;10756;-69
2022/04/21 03:31:43;;;;;;;;;9.75;8.50;;;;;10.20;65.53;-18757.59;5032117;28;10752;-68
2022/04/21 03:34:13;;;;;;;;;6.25;6.00;;;;;10.13;65.95;-18755.63;5033650;28;10435;-68
2022/04/21 03:36:44;;;;;;;;;5.00;5.00;;;;;10.17;65.71;-18757.00;5029091;28;10458;-67
2022/04/21 03:39:11;;;;;;;;;6.75;5.50;;;;;10.14;65.37;-18756.09;5016862;28;10469;-67
2022/04/21 03:41:37;;;;;;;;;6.75;6.75;;;;;10.07;65.89;-18753.81;5023688;28;10512;-69
2022/04/21 03:44:05;;;;;;;;;12.25;8.00;;;;;10.11;66.01;-18755.19;5023682;28;10484;-68
2022/04/21 03:46:32;;;;;;;;;2.00;2.00;;;;;10.14;65.98;-18756.09;5032841;28;10523;-69
2022/04/21 03:48:58;;;;;;;;;5.50;4.75;;;;;9.99;66.08;-18751.56;5032370;28;10377;-68
2022/04/21 03:51:27;;;;;;;;;7.50;7.50;;;;;10.00;65.91;-18751.72;5032860;28;10581;-68
2022/04/21 03:53:54;;;;;;;;;7.00;7.00;;;;;10.13;65.97;-18755.78;5025388;28;10613;-69
2022/04/21 03:56:21;;;;;;;;;7.75;7.00;;;;;10.09;65.88;-18754.56;5013843;28;10595;-68
2022/04/21 03:58:50;;;;;;;;;7.00;7.00;;;;;10.12;66.00;-18755.31;5013641;28;10534;-68
2022/04/21 04:01:16;;;;;;;;;4.50;4.50;;;;;10.15;65.95;-18756.38;5032662;28;10371;-68
2022/04/21 04:03:43;;;;;;;;;7.25;5.50;;;;;10.11;66.05;-18755.03;5033069;28;10396;-68
2022/04/21 04:11:41;;;;;;;;;6.50;6.00;;;;;9.98;66.57;-18751.25;5032764;28;10614;-68
2022/04/21 04:14:08;;;;;;;;;7.25;6.00;;;;;9.87;66.60;-18748.09;5038090;28;10468;-68
2022/04/21 04:16:35;;;;;;;;;5.50;5.50;;;;;10.00;65.73;-18751.84;5029255;28;10669;-67
2022/04/21 04:19:05;;;;;;;;;6.75;6.75;;;;;10.02;66.25;-18752.31;5026736;28;10494;-67
2022/04/21 04:21:32;;;;;;;;;6.50;6.00;;;;;9.93;66.40;-18749.59;5032576;28;10582;-68
2022/04/21 04:23:58;;;;;;;;;7.25;7.00;;;;;10.04;66.24;-18752.91;5032918;28;10584;-67
2022/04/21 04:26:25;;;;;;;;;6.00;6.00;;;;;9.94;66.75;-18749.91;5027127;28;10678;-69
2022/04/21 04:28:52;;;;;;;;;7.00;7.00;;;;;9.98;66.91;-18751.09;5024144;28;10547;-68
2022/04/21 04:31:18;;;;;;;;;4.75;4.75;;;;;10.02;66.56;-18752.31;5028606;28;10582;-68
2022/04/21 04:33:45;;;;;;;;;3.00;3.00;;;;;10.06;66.22;-18753.66;5031552;28;10487;-67
2022/04/21 04:36:13;;;;;;;;;6.00;6.00;;;;;10.07;66.63;-18753.81;5031819;28;10534;-68
2022/04/21 04:38:40;;;;;;;;;4.50;4.50;;;;;10.07;66.59;-18753.97;5031435;28;10582;-68
2022/04/21 04:43:52;;;;;;;;;5.50;5.00;;;;;10.09;66.72;-18754.44;5029416;28;10472;-69
2022/04/21 04:46:37;;;;;;;;;7.00;6.50;;;;;9.98;66.89;-18751.25;5030587;28;10507;-69
2022/04/21 04:49:08;;;;;;;;;7.25;7.25;;;;;10.05;66.66;-18753.22;5020492;28;11299;-69
2022/04/21 04:51:41;;;;;;;;;7.00;7.00;;;;;10.01;66.81;-18752.16;5031933;28;10752;-68
2022/04/21 04:54:12;;;;;;;;;8.50;8.50;;;;;9.87;67.01;-18747.94;5031641;28;10548;-69
2022/04/21 04:56:40;;;;;;;;;8.75;8.00;;;;;9.82;68.33;-18746.56;5025794;28;10597;-69
2022/04/21 04:59:07;;;;;;;;;8.75;7.00;;;;;9.85;68.88;-18747.47;5031788;28;10558;-68
2022/04/21 05:01:41;;;;;;;;;12.50;9.75;;;;;9.84;69.76;-18747.19;5025581;28;10797;-68
2022/04/21 05:04:09;;;;;;;;;7.00;7.00;;;;;10.44;68.63;-18765.00;5020950;28;10721;-70
2022/04/21 05:06:36;;;;;;;;;5.25;5.25;;;;;10.85;66.77;-18776.91;5011720;28;10612;-69
2022/04/21 05:09:09;;;;;;;;;8.50;8.50;;;;;11.00;66.14;-18781.44;5031899;28;10584;-69
2022/04/21 05:11:40;;;;;;;;;14.50;12.25;;;;;10.93;66.96;-18779.47;5030702;28;10579;-68
2022/04/21 05:14:07;;;;;;;;;14.75;13.50;;;;;11.06;65.46;-18783.41;5030236;28;10541;-70
2022/04/21 05:16:39;;;;;;;;;10.50;7.50;;;;;11.27;65.22;-18789.44;5012768;28;10709;-68
2022/04/21 05:19:07;;;;;;;;;9.25;8.00;;;;;11.40;63.52;-18793.50;5024050;28;10674;-68
2022/04/21 05:21:35;;;;;;;;;9.25;9.25;;;;;11.18;64.82;-18786.72;5031207;28;10696;-69
2022/04/21 05:24:03;;;;;;;;;10.50;9.25;;;;;10.78;65.06;-18775.09;5026665;28;10605;-70
2022/04/21 05:26:31;;;;;;;;;14.75;10.25;;;;;10.50;65.99;-18766.66;5023859;28;11448;-70
2022/04/21 05:29:00;;;;;;;;;10.00;8.00;;;;;10.37;66.43;-18762.88;5011976;28;10553;-71
2022/04/21 05:31:27;;;;;;;;;9.25;8.75;;;;;10.43;66.81;-18764.53;5011746;28;10340;-70
2022/04/21 05:33:54;;;;;;;;;10.00;8.25;;;;;10.24;67.17;-18758.81;5029203;28;10589;-71
2022/04/21 05:36:21;;;;;;;;;7.75;7.00;;;;;10.24;67.91;-18758.81;5030650;28;10467;-69
2022/04/21 05:38:51;;;;;;;;;6.75;5.75;;;;;10.44;67.16;-18764.84;5029239;28;10433;-70
2022/04/21 05:41:19;;;;;;;;;8.50;8.25;;;;;10.42;67.34;-18764.38;5025862;28;10502;-69
2022/04/21 05:43:47;;;;;;;;;7.50;7.50;;;;;10.33;67.58;-18761.53;5011647;28;10549;-69
2022/04/21 05:46:15;;;;;;;;;8.00;8.00;;;;;10.37;67.21;-18762.72;5026936;28;10647;-68
2022/04/21 05:48:43;;;;;;;;;8.00;8.00;;;;;10.46;66.75;-18765.59;5020818;28;11100;-68
2022/04/21 05:51:11;;;;;;;;;7.50;7.50;;;;;10.54;66.58;-18767.72;5013912;28;11160;-69
2022/04/21 05:53:39;;;;;;;;;5.25;5.25;;;;;10.45;65.81;-18765.16;5022361;28;10577;-70
2022/04/21 05:56:07;;;;;;;;;10.75;8.00;;;;;10.43;65.47;-18764.53;5017592;28;10487;-69
2022/04/21 05:58:37;;;;;;;;;8.25;7.00;;;;;10.67;64.02;-18771.63;5026825;28;11421;-69
2022/04/21 06:01:08;;;;;;;;;8.50;7.75;;;;;10.80;63.75;-18775.56;5014951;28;10468;-71
2022/04/21 06:03:41;;;;;;;;;9.00;8.00;;;;;11.25;62.37;-18788.81;5014127;28;10713;-71
2022/04/21 06:06:09;;;;;;;;;10.50;8.00;;;;;11.71;61.22;-18802.56;5023026;28;10454;-68
2022/04/21 06:08:39;;;;;;;;;10.25;10.25;;;;;11.63;60.09;-18800.28;5022518;28;10380;-69
2022/04/21 06:11:06;;;;;;;;;11.25;9.25;;;;;11.50;60.11;-18796.22;5026249;28;10536;-70
2022/04/21 06:13:32;;;;;;;;;9.25;8.00;;;;;11.88;58.91;-18807.69;5025772;28;10465;-69
2022/04/21 06:15:59;;;;;;;;;10.50;8.00;;;;;12.42;56.88;-18823.66;5011455;28;10278;-69
2022/04/21 06:18:26;;;;;;;;;6.00;6.00;;;;;12.49;56.13;-18825.78;5025400;28;10291;-70
2022/04/21 06:20:54;;;;;;;;;8.25;8.25;;;;;12.23;57.12;-18818.09;5019649;28;10397;-69
2022/04/21 06:23:21;;;;;;;;;12.75;12.75;;;;;12.25;57.18;-18818.53;5029837;28;10421;-69
2022/04/21 06:25:47;;;;;;;;;11.00;11.00;;;;;12.40;56.77;-18822.91;5023912;28;10402;-70
2022/04/21 06:28:15;;;;;;;;;10.50;10.50;;;;;12.20;56.67;-18817.19;5016130;28;10187;-69
2022/04/21 06:30:42;;;;;;;;;8.25;8.25;;;;;12.58;55.65;-18828.31;5014444;28;10422;-70
2022/04/21 06:33:14;;;;;;;;;9.00;9.00;;;;;12.66;56.25;-18830.59;5016447;28;10301;-69
2022/04/21 06:35:41;;;;;;;;;12.75;12.00;;;;;12.90;55.63;-18837.81;5019510;28;10833;-69
2022/04/21 06:38:07;;;;;;;;;9.25;8.25;;;;;13.16;54.37;-18845.66;5018748;28;10416;-70
2022/04/21 06:40:34;;;;;;;;;10.75;9.00;;;;;13.14;54.58;-18844.91;5013226;28;10275;-71
2022/04/21 06:43:03;;;;;;;;;10.00;10.00;;;;;13.19;53.48;-18846.41;5016609;28;10447;-71
2022/04/21 06:48:21;;;;;;;;;6.00;5.00;;;;;13.40;54.09;-18852.75;5013998;28;10190;-70
2022/04/21 06:50:49;;;;;;;;;6.75;6.25;;;;;13.47;52.80;-18854.84;5012191;28;10083;-70
2022/04/21 06:53:15;;;;;;;;;9.00;7.50;;;;;13.13;53.59;-18844.75;5015591;28;10090;-69
2022/04/21 06:55:42;;;;;;;;;14.25;8.75;;;;;13.07;54.61;-18842.78;5013911;28;10038;-69
2022/04/21 06:58:08;;;;;;;;;13.00;9.25;;;;;12.66;54.69;-18830.59;5011253;28;10187;-70
2022/04/21 07:00:35;;;;;;;;;11.00;9.75;;;;;12.96;54.57;-18839.47;5019048;28;10744;-71
2022/04/21 07:03:02;;;;;;;;;10.50;10.50;;;;;12.95;55.58;-18839.34;5012564;28;10341;-69
2022/04/21 07:05:29;;;;;;;;;10.75;9.75;;;;;13.13;54.95;-18844.75;5016103;28;10062;-70
2022/04/21 07:07:55;;;;;;;;;10.75;10.75;;;;;12.98;54.75;-18840.22;5012686;28;10103;-69
2022/04/21 07:10:22;;;;;;;;;13.50;11.25;;;;;12.89;55.67;-18837.53;5010853;28;10195;-67
2022/04/21 07:12:50;;;;;;;;;13.50;12.00;;;;;12.45;57.54;-18824.56;5011078;28;10193;-69
2022/04/21 07:15:17;;;;;;;;;15.25;10.50;;;;;12.73;58.09;-18832.69;5014669;28;10277;-71
2022/04/21 07:17:44;;;;;;;;;12.75;11.00;;;;;12.36;59.40;-18821.84;5012857;28;10368;-70
2022/04/21 07:20:12;;;;;;;;;16.00;14.50;;;;;12.57;59.34;-18828.19;5013398;28;10399;-70
2022/04/21 07:22:39;;;;;;;;;13.25;10.50;;;;;12.62;59.14;-18829.69;5013133;28;10544;-69
2022/04/21 07:25:08;;;;;;;;;18.00;18.00;;;;;12.43;58.87;-18823.81;5013529;28;10474;-69
2022/04/21 07:27:37;;;;;;;;;18.25;14.25;;;;;12.21;59.65;-18817.31;5014592;28;10491;-68
2022/04/21 07:30:05;;;;;;;;;12.75;12.75;;;;;12.18;60.05;-18816.44;5015382;28;10618;-68
2022/04/21 07:32:32;;;;;;;;;14.25;14.25;;;;;12.63;59.51;-18829.84;5012861;28;10558;-69
2022/04/21 07:35:00;;;;;;;;;15.50;13.00;;;;;12.60;59.59;-18829.09;5025743;28;10633;-70
2022/04/21 07:37:27;;;;;;;;;17.50;16.75;;;;;12.66;59.12;-18830.59;5020704;28;10601;-70
2022/04/21 07:39:54;;;;;;;;;14.50;14.50;;;;;12.84;58.25;-18836.16;5027946;28;10405;-69
2022/04/21 07:42:21;;;;;;;;;14.75;13.50;;;;;13.03;57.56;-18841.75;5019410;28;10594;-70
2022/04/21 07:44:48;;;;;;;;;14.50;10.00;;;;;12.80;57.44;-18834.97;5025102;28;10314;-68
2022/04/21 07:47:15;;;;;;;;;14.25;11.75;;;;;13.01;57.72;-18841.00;5021506;28;10335;-69
2022/04/21 07:49:48;;;;;;;;;15.75;14.00;;;;;12.85;58.40;-18836.47;5017641;28;10277;-70
2022/04/21 07:55:08;;;;;;;;;13.50;11.25;;;;;13.26;57.51;-18848.38;5024855;28;10471;-71
2022/04/21 07:57:35;;;;;;;;;15.00;15.00;;;;;13.08;56.61;-18843.09;5027594;28;10237;-70
2022/04/21 08:00:04;;;;;;;;;17.50;16.25;;;;;13.16;58.90;-18845.66;5023706;28;10516;-70
2022/04/21 08:02:38;;;;;;;;;11.75;10.75;;;;;13.24;57.68;-18848.06;5027682;28;10403;-70
2022/04/21 08:05:06;;;;;;;;;22.50;21.00;;;;;12.98;58.58;-18840.22;5013318;28;10480;-69
2022/04/21 08:07:34;;;;;;;;;17.50;15.25;;;;;13.28;58.05;-18848.97;5028554;28;10625;-71
2022/04/21 08:10:03;;;;;;;;;19.75;14.50;;;;;13.45;57.65;-18854.25;5032966;28;10566;-70
2022/04/21 08:12:46;;;;;;;;;20.50;20.25;;;;;13.43;56.93;-18853.50;5017539;28;11049;-70
2022/04/21 08:15:34;;;;;;;;;13.50;13.00;;;;;13.80;55.22;-18864.63;5013665;28;10594;-70
2022/04/21 08:18:02;;;;;;;;;12.50;11.75;;;;;13.98;54.91;-18869.75;5013644;28;10340;-69
2022/04/21 08:20:31;;;;;;;;;16.75;14.25;;;;;14.04;50.54;-18871.72;5032978;28;10359;-69
2022/04/21 08:22:57;;;;;;;;;11.25;10.75;;;;;14.54;49.71;-18886.47;5031727;28;10418;-70
2022/04/21 08:34:20;;;;;;;;;10.25;8.75;;;;;14.67;45.29;-18890.25;5031065;28;9933;-69
2022/04/21 08:36:51;;;;;;;;;7.00;7.00;;;;;14.93;46.17;-18898.06;5022353;28;10205;-70
2022/04/21 08:39:19;;;;;;;;;14.50;14.50;;;;;14.21;49.03;-18876.69;5011476;28;9860;-70
2022/04/21 08:41:53;;;;;;;;;13.50;12.50;;;;;14.34;49.38;-18880.59;5021412;28;10076;-71
2022/04/21 08:44:20;;;;;;;;;13.00;11.75;;;;;14.42;49.14;-18883.00;5031124;28;9983;-70
2022/04/21 08:46:50;;;;;;;;;14.50;12.00;;;;;14.63;47.31;-18889.03;5015796;28;9934;-70
2022/04/21 08:49:22;;;;;;;;;11.75;11.75;;;;;14.93;46.92;-18897.91;5012542;28;10010;-70
2022/04/21 08:51:49;;;;;;;;;9.75;7.25;;;;;15.56;45.01;-18916.72;5021878;28;10009;-70
2022/04/21 08:54:16;;;;;;;;;12.00;12.00;;;;;15.51;45.53;-18915.22;5031210;28;9779;-71
2022/04/21 08:56:43;;;;;;;;;9.00;7.00;;;;;15.28;45.38;-18908.28;5023253;28;10166;-71
2022/04/21 08:59:09;;;;;;;;;10.00;10.00;;;;;15.76;45.44;-18922.44;5015284;28;9912;-70
2022/04/21 09:01:36;;;;;;;;;11.25;11.25;;;;;15.77;44.11;-18922.75;5031470;28;9918;-70
2022/04/21 09:04:02;;;;;;;;;8.25;8.25;;;;;16.29;43.28;-18938.22;5031860;28;9615;-73
2022/04/21 09:06:29;;;;;;;;;10.00;7.75;;;;;15.92;42.96;-18927.41;5026347;28;9762;-70
2022/04/21 09:09:22;;;;;;;;;11.75;7.50;;;;;15.73;43.40;-18921.53;5031908;28;10255;-71
2022/04/21 09:11:56;;;;;;;;;9.00;8.00;;;;;16.08;43.12;-18932.06;5021997;28;10300;-69
2022/04/21 09:14:22;;;;;;;;;10.50;7.75;;;;;16.18;42.33;-18934.94;5011314;28;9713;-70
2022/04/21 09:16:49;;;;;;;;;7.25;7.25;;;;;16.53;41.97;-18945.31;5012527;28;9806;-70
2022/04/21 09:19:16;;;;;;;;;12.25;9.00;;;;;15.89;42.67;-18926.34;5012215;28;10228;-70
2022/04/21 09:21:43;;;;;;;;;11.25;10.00;;;;;15.73;43.35;-18921.53;5012061;28;9514;-70
2022/04/21 09:24:24;;;;;;;;;10.00;8.50;;;;;16.29;43.30;-18938.38;5011860;28;9675;-69
2022/04/21 09:26:52;;;;;;;;;9.25;9.25;;;;;16.22;42.80;-18936.13;5021462;28;9457;-70
2022/04/21 09:29:28;;;;;;;;;9.50;7.75;;;;;16.12;44.56;-18933.28;5031711;28;9588;-71
2022/04/21 09:31:59;;;;;;;;;12.75;10.25;;;;;16.40;43.51;-18941.53;5028597;28;9755;-72
2022/04/21 09:34:35;;;;;;;;;12.00;11.50;;;;;16.34;43.39;-18939.59;5031539;28;9576;-71
2022/04/21 09:37:05;;;;;;;;;4.33;4.33;;;;;16.61;37.36;-18947.72;5028315;28;9523;-69
2022/04/21 09:39:33;;;;;;;;;4.33;3.00;;;;;16.80;35.64;-18953.44;5031472;28;9305;-68
2022/04/21 09:41:59;;;;;;;;;2.00;2.00;;;;;17.02;34.97;-18959.88;5019016;28;9376;-69
2022/04/21 09:47:20;;;;;;;;;4.33;4.33;;;;;17.19;34.93;-18964.84;5025152;28;9132;-69
2022/04/21 09:49:47;;;;;;;;;2.33;2.00;;;;;16.86;34.83;-18955.09;5016030;28;9836;-69
2022/04/21 09:52:26;;;;;;;;;5.33;4.67;;;;;16.91;35.19;-18956.59;5011501;28;9317;-70
2022/04/21 09:54:53;;;;;;;;;6.00;6.00;;;;;17.21;35.37;-18965.59;5011348;28;9301;-69
2022/04/21 09:57:32;;;;;;;;;4.00;4.00;;;;;17.07;34.50;-18961.38;5019376;28;9235;-69
2022/04/21 09:59:59;;;;;;;;;2.00;2.00;;;;;17.54;35.05;-18975.38;5010480;28;9233;-69
2022/04/21 10:02:29;;;;;;;;;5.00;5.00;;;;;17.40;34.51;-18971.16;5024750;28;9260;-69
2022/04/21 10:04:58;;;;;;;;;5.33;5.33;;;;;17.57;34.82;-18975.97;5027738;28;9231;-69
2022/04/21 10:07:26;;;;;;;;;4.00;4.00;;;;;16.89;35.60;-18956.13;5012481;28;9206;-69
2022/04/21 10:09:54;;;;;;;;;4.33;4.00;;;;;17.20;35.53;-18965.31;5028756;28;9167;-69
2022/04/21 10:12:21;;;;;;;;;6.00;6.00;;;;;16.88;35.63;-18955.84;5018612;28;9173;-69
2022/04/21 10:14:47;;;;;;;;;6.00;4.00;;;;;17.16;35.59;-18964.09;5010697;28;9298;-69
2022/04/21 10:17:14;;;;;;;;;3.67;3.67;;;;;17.40;35.13;-18971.16;5010808;28;9273;-69
2022/04/21 10:19:40;;;;;;;;;6.00;6.00;;;;;17.26;36.43;-18966.81;5010786;28;9229;-69
2022/04/21 10:22:14;;;;;;;;;3.00;3.00;;;;;17.57;34.58;-18976.13;5018044;28;9160;-70
2022/04/21 10:24:41;;;;;;;;;6.00;5.33;;;;;17.89;34.85;-18985.44;5022878;28;9816;-70
2022/04/21 10:27:40;;;;;;;;;4.67;4.67;;;;;17.64;34.66;-18978.06;5019623;28;9185;-69
2022/04/21 10:30:20;;;;;;;;;7.00;5.00;;;;;18.01;34.29;-18989.03;5009371;28;9217;-70
2022/04/21 10:32:51;;;;;;;;;3.00;3.00;;;;;18.21;34.38;-18995.06;5025883;28;9156;-69
2022/04/21 10:35:24;;;;;;;;;8.00;7.00;;;;;17.67;34.50;-18978.97;5029740;28;9134;-71
2022/04/21 10:38:12;;;;;;;;;5.67;5.00;;;;;17.80;34.58;-18983.03;5030124;28;9180;-71
2022/04/21 10:40:58;;;;;;;;;4.67;4.00;;;;;17.71;33.65;-18980.34;5010736;28;9221;-70
2022/04/21 10:43:24;;;;;;;;;2.00;2.00;;;;;18.08;33.29;-18991.16;5013811;28;8936;-70
2022/04/21 10:46:05;;;;;;;;;6.00;5.33;;;;;17.96;34.81;-18987.69;5030386;28;9690;-70
2022/04/21 10:48:43;;;;;;;;;6.00;4.00;;;;;17.11;37.44;-18962.44;5028345;28;9215;-70
2022/04/21 10:51:13;;;;;;;;;4.67;4.00;;;;;17.31;36.88;-18968.47;5045446;28;9302;-71
2022/04/21 11:00:03;;;;;;;;;7.00;7.00;;;;;17.86;36.86;-18984.53;5017046;28;9214;-70
2022/04/21 11:02:43;;;;;;;;;6.00;4.33;;;;;18.04;35.81;-18990.09;5022204;28;9206;-70
2022/04/21 11:05:22;;;;;;;;;7.00;6.67;;;;;17.93;35.14;-18986.78;5026684;28;9171;-70
2022/04/21 11:07:54;;;;;;;;;4.00;4.00;;;;;18.09;35.09;-18991.59;5030014;28;9067;-70
2022/04/21 11:10:38;;;;;;;;;6.33;6.33;;;;;17.92;35.73;-18986.34;5045118;28;9152;-70
2022/04/21 11:13:10;;;;;;;;;7.00;6.00;;;;;18.09;33.96;-18991.44;5028602;28;9254;-70
2022/04/21 11:15:50;;;;;;;;;4.00;4.00;;;;;18.38;34.67;-19000.00;5010416;28;9067;-70
2022/04/21 11:18:33;;;;;;;;;4.00;3.33;;;;;18.04;34.54;-18990.09;5011546;28;8979;-69
2022/04/21 11:21:25;;;;;;;;;4.00;4.00;;;;;18.02;38.93;-18989.50;5024630;28;9004;-70
2022/04/21 11:23:52;;;;;;;;;7.00;6.00;;;;;17.85;40.97;-18984.25;5036400;28;9090;-69
2022/04/21 11:26:25;;;;;;;;;7.00;6.33;;;;;18.21;39.62;-18995.06;5011493;28;9055;-68
2022/04/21 11:28:52;;;;;;;;;8.00;7.67;;;;;18.28;38.60;-18997.00;5024810;28;9053;-67
2022/04/21 11:31:21;;;;;;;;;7.00;7.00;;;;;17.95;39.46;-18987.41;5029733;28;9136;-68
2022/04/21 11:33:48;;;;;;;;;8.00;7.00;;;;;18.00;39.04;-18988.91;5024249;28;9162;-67
2022/04/21 11:36:15;;;;;;;;;8.67;7.67;;;;;18.27;39.33;-18996.69;5008650;28;9118;-68
2022/04/21 11:38:44;;;;;;;;;8.00;8.00;;;;;18.09;40.78;-18991.44;5014645;28;9305;-68
2022/04/21 11:41:13;;;;;;;;;6.00;6.00;;;;;18.31;40.30;-18998.06;5013740;28;9235;-67
2022/04/21 11:43:47;;;;;;;;;8.00;8.00;;;;;17.94;41.25;-18987.09;5020919;28;9137;-69
2022/04/21 11:46:18;;;;;;;;;8.33;7.00;;;;;18.02;41.20;-18989.50;5028867;28;9150;-69
2022/04/21 11:48:44;;;;;;;;;10.67;8.00;;;;;17.63;39.75;-18977.78;5031558;28;9304;-68
2022/04/21 11:51:24;;;;;;;;;8.00;7.00;;;;;17.29;40.61;-18967.72;5033309;28;9215;-68
2022/04/21 11:53:51;;;;;;;;;10.00;7.67;;;;;17.50;39.85;-18974.16;5033095;28;9270;-68
2022/04/21 11:56:17;;;;;;;;;10.67;6.00;;;;;17.78;39.10;-18982.44;5024188;28;9261;-71
2022/04/21 11:58:44;;;;;;;;;7.00;7.00;;;;;17.90;38.22;-18985.91;5016159;28;9159;-69
2022/04/21 12:06:58;;;;;;;;;6.00;6.00;;;;;18.14;38.32;-18993.09;5032920;28;9385;-70
2022/04/21 12:09:26;;;;;;;;;9.00;8.00;;;;;17.66;38.64;-18978.81;5021902;28;9178;-70
2022/04/21 12:11:58;;;;;;;;;6.33;5.33;;;;;18.12;38.33;-18992.50;5013359;28;9331;-68
2022/04/21 12:14:25;;;;;;;;;8.00;6.00;;;;;17.79;37.78;-18982.59;5027490;28;9324;-70
2022/04/21 12:16:53;;;;;;;;;8.00;7.00;;;;;17.83;37.63;-18983.94;5013296;28;9349;-69
2022/04/21 12:19:44;;;;;;;;;10.00;10.00;;;;;17.89;38.05;-18985.44;5013233;28;9160;-69
2022/04/21 12:22:17;;;;;;;;;9.00;8.00;;;;;18.00;38.11;-18988.91;5012884;28;9260;-68
2022/04/21 12:24:47;;;;;;;;;8.67;6.33;;;;;17.78;38.22;-18982.28;5023730;28;9324;-68
2022/04/21 12:27:24;;;;;;;;;5.67;5.67;;;;;18.40;37.68;-19000.75;5046884;28;9174;-69